sensor_id;sensor_type;location;lat;lon;timestamp;temperature;humidity
16412;DHT22;8315;52.104;6.304;2023-05-14T00:01:22;15.90;98.40
16412;DHT22;8315;52.104;6.304;2023-05-14T00:03:48;15.90;98.40
16412;DHT22;8315;52.104;6.304;2023-05-14T00:06:15;15.80;98.40
16412;DHT22;8315;52.104;6.304;2023-05-14T00:08:43;15.90;98.40
16412;DHT22;8315;52.104;6.304;2023-05-14T00:11:10;15.80;98.40
16412;DHT22;8315;52.104;6.304;2023-05-14T00:13:37;15.70;98.40
16412;DHT22;8315;52.104;6.304;2023-05-14T00:16:04;15.60;98.40
16412;DHT22;8315;52.104;6.304;2023-05-14T00:18:31;15.60;98.40
16412;DHT22;8315;52.104;6.304;2023-05-14T00:20:58;15.50;98.40
16412;DHT22;8315;52.104;6.304;2023-05-14T00:23:25;15.50;98.40
16412;DHT22;8315;52.104;6.304;2023-05-14T00:25:53;15.50;98.40
16412;DHT22;8315;52.104;6.304;2023-05-14T00:28:20;15.50;98.40
16412;DHT22;8315;52.104;6.304;2023-05-14T00:30:47;15.30;98.40
16412;DHT22;8315;52.104;6.304;2023-05-14T00:33:14;15.30;98.40
16412;DHT22;8315;52.104;6.304;2023-05-14T00:35:42;15.10;98.40
16412;DHT22;8315;52.104;6.304;2023-05-14T00:38:10;15.10;98.40
16412;DHT22;8315;52.104;6.304;2023-05-14T00:40:41;15.00;98.40
16412;DHT22;8315;52.104;6.304;2023-05-14T00:43:11;15.20;98.40
16412;DHT22;8315;52.104;6.304;2023-05-14T00:45:38;14.90;98.40
16412;DHT22;8315;52.104;6.304;2023-05-14T00:48:05;15.00;98.40
16412;DHT22;8315;52.104;6.304;2023-05-14T00:50:32;15.10;98.40
16412;DHT22;8315;52.104;6.304;2023-05-14T00:52:59;14.90;98.40
16412;DHT22;8315;52.104;6.304;2023-05-14T00:55:26;14.80;98.40
16412;DHT22;8315;52.104;6.304;2023-05-14T00:57:54;14.70;98.40
16412;DHT22;8315;52.104;6.304;2023-05-14T01:00:23;14.80;98.40
16412;DHT22;8315;52.104;6.304;2023-05-14T01:02:50;14.80;98.40
16412;DHT22;8315;52.104;6.304;2023-05-14T01:05:17;14.80;98.40
16412;DHT22;8315;52.104;6.304;2023-05-14T01:07:45;14.80;98.40
16412;DHT22;8315;52.104;6.304;2023-05-14T01:10:19;14.80;98.40
16412;DHT22;8315;52.104;6.304;2023-05-14T01:12:50;14.70;98.40
16412;DHT22;8315;52.104;6.304;2023-05-14T01:15:21;14.80;98.40
16412;DHT22;8315;52.104;6.304;2023-05-14T01:17:58;14.70;98.40
16412;DHT22;8315;52.104;6.304;2023-05-14T01:20:28;14.80;98.40
16412;DHT22;8315;52.104;6.304;2023-05-14T01:22:57;14.80;98.40
16412;DHT22;8315;52.104;6.304;2023-05-14T01:25:24;14.60;98.40
16412;DHT22;8315;52.104;6.304;2023-05-14T01:27:52;14.70;98.40
16412;DHT22;8315;52.104;6.304;2023-05-14T01:30:25;14.70;98.40
16412;DHT22;8315;52.104;6.304;2023-05-14T01:32:56;14.70;98.40
16412;DHT22;8315;52.104;6.304;2023-05-14T01:35:26;14.50;98.40
16412;DHT22;8315;52.104;6.304;2023-05-14T01:37:54;14.50;98.40
16412;DHT22;8315;52.104;6.304;2023-05-14T01:40:24;14.50;98.40
16412;DHT22;8315;52.104;6.304;2023-05-14T01:42:51;14.50;98.40
16412;DHT22;8315;52.104;6.304;2023-05-14T01:45:18;14.50;98.40
16412;DHT22;8315;52.104;6.304;2023-05-14T01:47:45;14.40;98.40
16412;DHT22;8315;52.104;6.304;2023-05-14T01:50:12;14.40;98.40
16412;DHT22;8315;52.104;6.304;2023-05-14T01:52:39;14.30;98.40
16412;DHT22;8315;52.104;6.304;2023-05-14T01:55:08;14.30;98.40
16412;DHT22;8315;52.104;6.304;2023-05-14T01:57:35;14.30;98.40
16412;DHT22;8315;52.104;6.304;2023-05-14T02:00:02;14.30;98.40
16412;DHT22;8315;52.104;6.304;2023-05-14T02:02:39;14.20;98.40
16412;DHT22;8315;52.104;6.304;2023-05-14T02:05:08;14.20;98.40
16412;DHT22;8315;52.104;6.304;2023-05-14T02:07:35;14.10;98.40
16412;DHT22;8315;52.104;6.304;2023-05-14T02:10:02;14.10;98.40
16412;DHT22;8315;52.104;6.304;2023-05-14T02:12:31;14.00;98.40
16412;DHT22;8315;52.104;6.304;2023-05-14T02:14:58;13.80;98.40
16412;DHT22;8315;52.104;6.304;2023-05-14T02:17:26;13.80;98.40
16412;DHT22;8315;52.104;6.304;2023-05-14T02:19:53;13.70;98.40
16412;DHT22;8315;52.104;6.304;2023-05-14T02:22:20;13.60;98.40
16412;DHT22;8315;52.104;6.304;2023-05-14T02:24:47;13.70;98.40
16412;DHT22;8315;52.104;6.304;2023-05-14T02:27:16;13.70;98.40
16412;DHT22;8315;52.104;6.304;2023-05-14T02:29:45;13.60;98.40
16412;DHT22;8315;52.104;6.304;2023-05-14T02:32:12;13.50;98.40
16412;DHT22;8315;52.104;6.304;2023-05-14T02:34:39;13.60;98.40
16412;DHT22;8315;52.104;6.304;2023-05-14T02:37:06;13.60;98.40
16412;DHT22;8315;52.104;6.304;2023-05-14T02:39:33;13.70;98.40
16412;DHT22;8315;52.104;6.304;2023-05-14T02:41:59;13.60;98.40
16412;DHT22;8315;52.104;6.304;2023-05-14T02:44:26;13.60;98.40
16412;DHT22;8315;52.104;6.304;2023-05-14T02:46:54;13.50;98.40
16412;DHT22;8315;52.104;6.304;2023-05-14T02:49:21;13.50;98.40
16412;DHT22;8315;52.104;6.304;2023-05-14T02:51:48;13.40;98.40
16412;DHT22;8315;52.104;6.304;2023-05-14T02:54:14;13.30;98.40
16412;DHT22;8315;52.104;6.304;2023-05-14T02:56:41;13.30;98.40
16412;DHT22;8315;52.104;6.304;2023-05-14T02:59:08;13.20;98.40
16412;DHT22;8315;52.104;6.304;2023-05-14T03:01:35;13.20;98.40
16412;DHT22;8315;52.104;6.304;2023-05-14T03:04:03;13.20;98.40
16412;DHT22;8315;52.104;6.304;2023-05-14T03:06:30;13.10;98.40
16412;DHT22;8315;52.104;6.304;2023-05-14T03:08:57;13.10;98.40
16412;DHT22;8315;52.104;6.304;2023-05-14T03:11:23;13.10;98.40
16412;DHT22;8315;52.104;6.304;2023-05-14T03:13:50;13.10;98.40
16412;DHT22;8315;52.104;6.304;2023-05-14T03:16:17;13.10;98.40
16412;DHT22;8315;52.104;6.304;2023-05-14T03:18:44;13.00;98.40
16412;DHT22;8315;52.104;6.304;2023-05-14T03:21:12;13.00;98.40
16412;DHT22;8315;52.104;6.304;2023-05-14T03:23:39;13.00;98.40
16412;DHT22;8315;52.104;6.304;2023-05-14T03:26:05;13.00;98.40
16412;DHT22;8315;52.104;6.304;2023-05-14T03:28:32;13.10;98.40
16412;DHT22;8315;52.104;6.304;2023-05-14T03:30:59;13.10;98.40
16412;DHT22;8315;52.104;6.304;2023-05-14T03:33:26;13.00;98.40
16412;DHT22;8315;52.104;6.304;2023-05-14T03:35:53;13.00;98.40
16412;DHT22;8315;52.104;6.304;2023-05-14T03:38:21;12.90;98.40
16412;DHT22;8315;52.104;6.304;2023-05-14T03:40:48;12.80;98.40
16412;DHT22;8315;52.104;6.304;2023-05-14T03:43:15;12.80;98.40
16412;DHT22;8315;52.104;6.304;2023-05-14T03:45:42;12.80;98.40
16412;DHT22;8315;52.104;6.304;2023-05-14T03:48:09;12.80;98.40
16412;DHT22;8315;52.104;6.304;2023-05-14T03:50:36;12.80;98.40
16412;DHT22;8315;52.104;6.304;2023-05-14T03:53:05;12.80;98.40
16412;DHT22;8315;52.104;6.304;2023-05-14T03:55:33;12.70;98.40
16412;DHT22;8315;52.104;6.304;2023-05-14T03:58:01;12.70;98.40
16412;DHT22;8315;52.104;6.304;2023-05-14T04:00:30;12.60;98.40
16412;DHT22;8315;52.104;6.304;2023-05-14T04:02:57;12.70;98.40
16412;DHT22;8315;52.104;6.304;2023-05-14T04:05:24;12.70;98.40
16412;DHT22;8315;52.104;6.304;2023-05-14T04:07:51;12.60;98.40
16412;DHT22;8315;52.104;6.304;2023-05-14T04:10:19;12.70;98.40
16412;DHT22;8315;52.104;6.304;2023-05-14T04:12:47;12.60;98.40
16412;DHT22;8315;52.104;6.304;2023-05-14T04:15:13;12.60;98.40
16412;DHT22;8315;52.104;6.304;2023-05-14T04:17:41;12.60;98.40
16412;DHT22;8315;52.104;6.304;2023-05-14T04:20:08;12.60;98.40
16412;DHT22;8315;52.104;6.304;2023-05-14T04:22:35;12.60;98.40
16412;DHT22;8315;52.104;6.304;2023-05-14T04:25:02;12.60;98.40
16412;DHT22;8315;52.104;6.304;2023-05-14T04:27:31;12.60;98.40
16412;DHT22;8315;52.104;6.304;2023-05-14T04:29:59;12.60;98.40
16412;DHT22;8315;52.104;6.304;2023-05-14T04:32:26;12.30;98.40
16412;DHT22;8315;52.104;6.304;2023-05-14T04:34:54;12.40;98.40
16412;DHT22;8315;52.104;6.304;2023-05-14T04:37:21;12.50;98.40
16412;DHT22;8315;52.104;6.304;2023-05-14T04:39:48;12.50;98.40
16412;DHT22;8315;52.104;6.304;2023-05-14T04:42:15;12.60;98.40
16412;DHT22;8315;52.104;6.304;2023-05-14T04:44:41;12.50;98.40
16412;DHT22;8315;52.104;6.304;2023-05-14T04:47:10;12.50;98.40
16412;DHT22;8315;52.104;6.304;2023-05-14T04:49:36;12.50;98.40
16412;DHT22;8315;52.104;6.304;2023-05-14T04:52:04;12.50;98.40
16412;DHT22;8315;52.104;6.304;2023-05-14T04:54:31;12.50;98.40
16412;DHT22;8315;52.104;6.304;2023-05-14T04:56:58;12.50;98.40
16412;DHT22;8315;52.104;6.304;2023-05-14T04:59:27;12.40;98.40
16412;DHT22;8315;52.104;6.304;2023-05-14T05:01:54;12.50;98.40
16412;DHT22;8315;52.104;6.304;2023-05-14T05:04:22;12.50;98.40
16412;DHT22;8315;52.104;6.304;2023-05-14T05:06:50;12.60;98.40
16412;DHT22;8315;52.104;6.304;2023-05-14T05:09:17;12.50;98.40
16412;DHT22;8315;52.104;6.304;2023-05-14T05:11:44;12.50;98.40
16412;DHT22;8315;52.104;6.304;2023-05-14T05:14:10;12.60;98.40
16412;DHT22;8315;52.104;6.304;2023-05-14T05:16:37;12.70;98.40
16412;DHT22;8315;52.104;6.304;2023-05-14T05:19:04;12.70;98.40
16412;DHT22;8315;52.104;6.304;2023-05-14T05:21:32;12.60;98.40
16412;DHT22;8315;52.104;6.304;2023-05-14T05:23:59;12.60;98.40
16412;DHT22;8315;52.104;6.304;2023-05-14T05:26:26;12.70;98.40
16412;DHT22;8315;52.104;6.304;2023-05-14T05:28:53;12.80;98.40
16412;DHT22;8315;52.104;6.304;2023-05-14T05:31:20;12.90;98.40
16412;DHT22;8315;52.104;6.304;2023-05-14T05:33:47;12.90;98.40
16412;DHT22;8315;52.104;6.304;2023-05-14T05:36:13;12.80;98.40
16412;DHT22;8315;52.104;6.304;2023-05-14T05:38:41;13.00;98.40
16412;DHT22;8315;52.104;6.304;2023-05-14T05:41:08;13.10;98.40
16412;DHT22;8315;52.104;6.304;2023-05-14T05:43:35;13.10;98.40
16412;DHT22;8315;52.104;6.304;2023-05-14T05:46:02;13.10;98.40
16412;DHT22;8315;52.104;6.304;2023-05-14T05:48:29;13.00;98.40
16412;DHT22;8315;52.104;6.304;2023-05-14T05:50:56;13.00;98.40
16412;DHT22;8315;52.104;6.304;2023-05-14T05:53:23;13.00;98.40
16412;DHT22;8315;52.104;6.304;2023-05-14T05:55:51;13.10;98.40
16412;DHT22;8315;52.104;6.304;2023-05-14T05:58:18;13.40;98.40
16412;DHT22;8315;52.104;6.304;2023-05-14T06:00:45;13.40;98.40
16412;DHT22;8315;52.104;6.304;2023-05-14T06:03:12;13.50;98.40
16412;DHT22;8315;52.104;6.304;2023-05-14T06:05:39;13.50;98.40
16412;DHT22;8315;52.104;6.304;2023-05-14T06:08:06;13.40;98.40
16412;DHT22;8315;52.104;6.304;2023-05-14T06:10:32;13.50;98.40
16412;DHT22;8315;52.104;6.304;2023-05-14T06:13:02;13.40;98.40
16412;DHT22;8315;52.104;6.304;2023-05-14T06:15:28;13.50;98.40
16412;DHT22;8315;52.104;6.304;2023-05-14T06:17:55;13.60;98.40
16412;DHT22;8315;52.104;6.304;2023-05-14T06:20:22;13.70;98.40
16412;DHT22;8315;52.104;6.304;2023-05-14T06:22:49;13.70;98.40
16412;DHT22;8315;52.104;6.304;2023-05-14T06:25:16;13.60;98.40
16412;DHT22;8315;52.104;6.304;2023-05-14T06:27:43;13.70;98.40
16412;DHT22;8315;52.104;6.304;2023-05-14T06:30:12;13.70;98.40
16412;DHT22;8315;52.104;6.304;2023-05-14T06:32:39;13.80;98.40
16412;DHT22;8315;52.104;6.304;2023-05-14T06:35:06;13.90;98.40
16412;DHT22;8315;52.104;6.304;2023-05-14T06:37:34;13.90;98.40
16412;DHT22;8315;52.104;6.304;2023-05-14T06:40:01;13.90;98.40
16412;DHT22;8315;52.104;6.304;2023-05-14T06:42:28;14.10;98.40
16412;DHT22;8315;52.104;6.304;2023-05-14T06:44:56;14.20;98.40
16412;DHT22;8315;52.104;6.304;2023-05-14T06:47:24;14.20;98.40
16412;DHT22;8315;52.104;6.304;2023-05-14T06:49:51;14.30;98.40
16412;DHT22;8315;52.104;6.304;2023-05-14T06:52:18;14.40;98.40
16412;DHT22;8315;52.104;6.304;2023-05-14T06:54:45;14.50;98.40
16412;DHT22;8315;52.104;6.304;2023-05-14T06:57:11;14.50;98.40
16412;DHT22;8315;52.104;6.304;2023-05-14T06:59:38;14.60;98.40
16412;DHT22;8315;52.104;6.304;2023-05-14T07:02:05;14.70;98.40
16412;DHT22;8315;52.104;6.304;2023-05-14T07:04:33;14.90;98.40
16412;DHT22;8315;52.104;6.304;2023-05-14T07:07:00;15.00;98.40
16412;DHT22;8315;52.104;6.304;2023-05-14T07:09:27;15.00;98.40
16412;DHT22;8315;52.104;6.304;2023-05-14T07:11:54;15.10;98.40
16412;DHT22;8315;52.104;6.304;2023-05-14T07:14:21;15.20;98.40
16412;DHT22;8315;52.104;6.304;2023-05-14T07:16:47;15.30;98.40
16412;DHT22;8315;52.104;6.304;2023-05-14T07:19:14;15.40;98.40
16412;DHT22;8315;52.104;6.304;2023-05-14T07:21:42;15.40;98.40
16412;DHT22;8315;52.104;6.304;2023-05-14T07:24:09;15.50;98.40
16412;DHT22;8315;52.104;6.304;2023-05-14T07:26:36;15.70;98.40
16412;DHT22;8315;52.104;6.304;2023-05-14T07:29:03;15.70;98.40
16412;DHT22;8315;52.104;6.304;2023-05-14T07:31:30;15.60;98.40
16412;DHT22;8315;52.104;6.304;2023-05-14T07:33:57;15.90;98.40
16412;DHT22;8315;52.104;6.304;2023-05-14T07:36:23;16.00;98.40
16412;DHT22;8315;52.104;6.304;2023-05-14T07:38:52;16.20;98.40
16412;DHT22;8315;52.104;6.304;2023-05-14T07:41:18;16.30;98.40
16412;DHT22;8315;52.104;6.304;2023-05-14T07:43:45;16.40;98.40
16412;DHT22;8315;52.104;6.304;2023-05-14T07:46:12;16.50;98.40
16412;DHT22;8315;52.104;6.304;2023-05-14T07:48:39;16.70;98.40
16412;DHT22;8315;52.104;6.304;2023-05-14T07:51:06;16.80;98.40
16412;DHT22;8315;52.104;6.304;2023-05-14T07:53:33;16.90;98.40
16412;DHT22;8315;52.104;6.304;2023-05-14T07:56:01;17.00;98.40
16412;DHT22;8315;52.104;6.304;2023-05-14T07:58:28;17.10;98.40
16412;DHT22;8315;52.104;6.304;2023-05-14T08:00:55;17.10;98.40
16412;DHT22;8315;52.104;6.304;2023-05-14T08:03:22;17.10;98.40
16412;DHT22;8315;52.104;6.304;2023-05-14T08:05:48;17.40;98.40
16412;DHT22;8315;52.104;6.304;2023-05-14T08:08:16;17.40;98.40
16412;DHT22;8315;52.104;6.304;2023-05-14T08:10:42;17.60;98.40
16412;DHT22;8315;52.104;6.304;2023-05-14T08:13:11;17.80;98.40
16412;DHT22;8315;52.104;6.304;2023-05-14T08:15:37;17.80;98.40
16412;DHT22;8315;52.104;6.304;2023-05-14T08:18:04;18.00;98.40
16412;DHT22;8315;52.104;6.304;2023-05-14T08:20:31;18.10;98.40
16412;DHT22;8315;52.104;6.304;2023-05-14T08:22:58;18.10;98.40
16412;DHT22;8315;52.104;6.304;2023-05-14T08:25:25;18.20;98.40
16412;DHT22;8315;52.104;6.304;2023-05-14T08:27:52;18.40;98.40
16412;DHT22;8315;52.104;6.304;2023-05-14T08:30:20;18.50;98.40
16412;DHT22;8315;52.104;6.304;2023-05-14T08:32:47;18.50;98.40
16412;DHT22;8315;52.104;6.304;2023-05-14T08:35:15;18.50;98.40
16412;DHT22;8315;52.104;6.304;2023-05-14T08:37:43;18.50;98.40
16412;DHT22;8315;52.104;6.304;2023-05-14T08:40:11;18.60;98.40
16412;DHT22;8315;52.104;6.304;2023-05-14T08:42:38;18.80;98.40
16412;DHT22;8315;52.104;6.304;2023-05-14T08:45:07;18.90;98.40
16412;DHT22;8315;52.104;6.304;2023-05-14T08:47:39;19.00;98.40
16412;DHT22;8315;52.104;6.304;2023-05-14T08:50:06;19.20;98.40
16412;DHT22;8315;52.104;6.304;2023-05-14T08:52:33;19.30;98.40
16412;DHT22;8315;52.104;6.304;2023-05-14T08:55:01;19.20;98.40
16412;DHT22;8315;52.104;6.304;2023-05-14T08:57:29;19.30;98.40
16412;DHT22;8315;52.104;6.304;2023-05-14T08:59:57;19.30;98.40
16412;DHT22;8315;52.104;6.304;2023-05-14T09:02:26;19.40;98.40
16412;DHT22;8315;52.104;6.304;2023-05-14T09:04:56;19.40;98.40
16412;DHT22;8315;52.104;6.304;2023-05-14T09:07:23;19.30;98.40
16412;DHT22;8315;52.104;6.304;2023-05-14T09:09:50;19.30;98.40
16412;DHT22;8315;52.104;6.304;2023-05-14T09:12:17;19.30;98.40
16412;DHT22;8315;52.104;6.304;2023-05-14T09:14:44;19.50;98.40
16412;DHT22;8315;52.104;6.304;2023-05-14T09:17:12;19.70;98.40
16412;DHT22;8315;52.104;6.304;2023-05-14T09:19:39;19.70;98.40
16412;DHT22;8315;52.104;6.304;2023-05-14T09:22:08;19.80;98.40
16412;DHT22;8315;52.104;6.304;2023-05-14T09:24:36;19.80;98.40
16412;DHT22;8315;52.104;6.304;2023-05-14T09:27:04;19.90;98.40
16412;DHT22;8315;52.104;6.304;2023-05-14T09:29:31;19.90;98.40
16412;DHT22;8315;52.104;6.304;2023-05-14T09:31:59;20.00;98.40
16412;DHT22;8315;52.104;6.304;2023-05-14T09:34:29;20.00;98.40
16412;DHT22;8315;52.104;6.304;2023-05-14T09:36:57;20.30;98.40
16412;DHT22;8315;52.104;6.304;2023-05-14T09:39:27;20.30;96.10
16412;DHT22;8315;52.104;6.304;2023-05-14T09:41:54;20.50;94.90
16412;DHT22;8315;52.104;6.304;2023-05-14T09:44:21;20.60;95.80
16412;DHT22;8315;52.104;6.304;2023-05-14T09:46:49;20.70;96.90
16412;DHT22;8315;52.104;6.304;2023-05-14T09:49:16;20.90;93.70
16412;DHT22;8315;52.104;6.304;2023-05-14T09:51:43;21.00;95.30
16412;DHT22;8315;52.104;6.304;2023-05-14T09:54:10;20.90;95.30
16412;DHT22;8315;52.104;6.304;2023-05-14T09:56:38;20.90;96.60
16412;DHT22;8315;52.104;6.304;2023-05-14T09:59:05;20.90;96.80
16412;DHT22;8315;52.104;6.304;2023-05-14T10:01:32;20.70;96.50
16412;DHT22;8315;52.104;6.304;2023-05-14T10:03:59;20.60;95.40
16412;DHT22;8315;52.104;6.304;2023-05-14T10:06:26;20.60;97.10
16412;DHT22;8315;52.104;6.304;2023-05-14T10:08:54;20.70;96.10
16412;DHT22;8315;52.104;6.304;2023-05-14T10:11:23;20.90;95.60
16412;DHT22;8315;52.104;6.304;2023-05-14T10:13:54;21.20;94.10
16412;DHT22;8315;52.104;6.304;2023-05-14T10:16:26;21.30;93.00
16412;DHT22;8315;52.104;6.304;2023-05-14T10:18:55;21.20;94.30
16412;DHT22;8315;52.104;6.304;2023-05-14T10:21:26;21.30;93.20
16412;DHT22;8315;52.104;6.304;2023-05-14T10:23:55;21.30;91.20
16412;DHT22;8315;52.104;6.304;2023-05-14T10:26:23;21.40;90.20
16412;DHT22;8315;52.104;6.304;2023-05-14T10:28:50;21.50;91.10
16412;DHT22;8315;52.104;6.304;2023-05-14T10:31:18;21.70;88.60
16412;DHT22;8315;52.104;6.304;2023-05-14T10:33:49;21.70;88.60
16412;DHT22;8315;52.104;6.304;2023-05-14T10:36:16;21.80;88.70
16412;DHT22;8315;52.104;6.304;2023-05-14T10:38:44;21.70;87.90
16412;DHT22;8315;52.104;6.304;2023-05-14T10:41:11;21.80;89.60
16412;DHT22;8315;52.104;6.304;2023-05-14T10:43:42;21.90;87.20
16412;DHT22;8315;52.104;6.304;2023-05-14T10:46:10;21.70;85.60
16412;DHT22;8315;52.104;6.304;2023-05-14T10:48:39;21.80;84.30
16412;DHT22;8315;52.104;6.304;2023-05-14T10:51:08;21.90;82.10
16412;DHT22;8315;52.104;6.304;2023-05-14T10:53:36;22.00;81.40
16412;DHT22;8315;52.104;6.304;2023-05-14T10:56:04;22.10;84.70
16412;DHT22;8315;52.104;6.304;2023-05-14T10:58:34;22.20;81.60
16412;DHT22;8315;52.104;6.304;2023-05-14T11:01:02;22.40;81.70
16412;DHT22;8315;52.104;6.304;2023-05-14T11:03:31;22.40;83.10
16412;DHT22;8315;52.104;6.304;2023-05-14T11:05:59;22.30;85.40
16412;DHT22;8315;52.104;6.304;2023-05-14T11:08:28;22.30;82.80
16412;DHT22;8315;52.104;6.304;2023-05-14T11:10:56;22.20;83.70
16412;DHT22;8315;52.104;6.304;2023-05-14T11:13:23;22.30;83.30
16412;DHT22;8315;52.104;6.304;2023-05-14T11:15:51;22.50;84.90
16412;DHT22;8315;52.104;6.304;2023-05-14T11:18:25;22.60;81.00
16412;DHT22;8315;52.104;6.304;2023-05-14T11:20:52;22.70;81.20
16412;DHT22;8315;52.104;6.304;2023-05-14T11:23:22;22.80;82.80
16412;DHT22;8315;52.104;6.304;2023-05-14T11:25:50;22.70;79.00
16412;DHT22;8315;52.104;6.304;2023-05-14T11:28:18;22.70;77.20
16412;DHT22;8315;52.104;6.304;2023-05-14T11:30:46;22.70;76.10
16412;DHT22;8315;52.104;6.304;2023-05-14T11:33:13;22.80;76.80
16412;DHT22;8315;52.104;6.304;2023-05-14T11:35:40;23.00;76.80
16412;DHT22;8315;52.104;6.304;2023-05-14T11:38:12;23.20;76.90
16412;DHT22;8315;52.104;6.304;2023-05-14T11:40:41;22.90;74.70
16412;DHT22;8315;52.104;6.304;2023-05-14T11:43:08;22.80;77.30
16412;DHT22;8315;52.104;6.304;2023-05-14T11:45:35;22.80;75.90
16412;DHT22;8315;52.104;6.304;2023-05-14T11:48:10;22.80;80.00
16412;DHT22;8315;52.104;6.304;2023-05-14T11:50:37;22.80;82.30
16412;DHT22;8315;52.104;6.304;2023-05-14T11:53:04;22.80;84.00
16412;DHT22;8315;52.104;6.304;2023-05-14T11:55:32;22.80;83.80
16412;DHT22;8315;52.104;6.304;2023-05-14T11:58:01;22.90;85.10
16412;DHT22;8315;52.104;6.304;2023-05-14T12:00:28;22.90;86.00
16412;DHT22;8315;52.104;6.304;2023-05-14T12:02:55;22.80;84.70
16412;DHT22;8315;52.104;6.304;2023-05-14T12:05:22;22.80;85.30
16412;DHT22;8315;52.104;6.304;2023-05-14T12:07:49;22.80;85.40
16412;DHT22;8315;52.104;6.304;2023-05-14T12:10:16;22.80;85.60
16412;DHT22;8315;52.104;6.304;2023-05-14T12:12:44;22.80;83.40
16412;DHT22;8315;52.104;6.304;2023-05-14T12:15:12;22.80;84.30
16412;DHT22;8315;52.104;6.304;2023-05-14T12:17:40;22.60;81.00
16412;DHT22;8315;52.104;6.304;2023-05-14T12:20:07;22.50;80.50
16412;DHT22;8315;52.104;6.304;2023-05-14T12:22:36;22.40;79.80
16412;DHT22;8315;52.104;6.304;2023-05-14T12:25:03;22.50;81.90
16412;DHT22;8315;52.104;6.304;2023-05-14T12:27:35;22.70;85.10
16412;DHT22;8315;52.104;6.304;2023-05-14T12:30:03;22.80;83.90
16412;DHT22;8315;52.104;6.304;2023-05-14T12:32:32;22.90;82.10
16412;DHT22;8315;52.104;6.304;2023-05-14T12:34:59;22.80;76.00
16412;DHT22;8315;52.104;6.304;2023-05-14T12:37:26;22.90;78.50
16412;DHT22;8315;52.104;6.304;2023-05-14T12:39:53;23.00;72.40
16412;DHT22;8315;52.104;6.304;2023-05-14T12:42:20;23.20;73.30
16412;DHT22;8315;52.104;6.304;2023-05-14T12:44:47;23.00;73.50
16412;DHT22;8315;52.104;6.304;2023-05-14T12:47:14;23.20;73.10
16412;DHT22;8315;52.104;6.304;2023-05-14T12:49:42;23.30;71.40
16412;DHT22;8315;52.104;6.304;2023-05-14T12:52:09;23.40;68.20
16412;DHT22;8315;52.104;6.304;2023-05-14T12:54:36;23.30;64.20
16412;DHT22;8315;52.104;6.304;2023-05-14T12:57:04;23.20;61.80
16412;DHT22;8315;52.104;6.304;2023-05-14T12:59:31;23.20;60.30
16412;DHT22;8315;52.104;6.304;2023-05-14T13:01:58;23.20;61.60
16412;DHT22;8315;52.104;6.304;2023-05-14T13:04:25;23.10;64.80
16412;DHT22;8315;52.104;6.304;2023-05-14T13:06:53;23.10;66.10
16412;DHT22;8315;52.104;6.304;2023-05-14T13:09:20;23.10;67.10
16412;DHT22;8315;52.104;6.304;2023-05-14T13:11:47;23.20;65.50
16412;DHT22;8315;52.104;6.304;2023-05-14T13:14:14;23.20;65.30
16412;DHT22;8315;52.104;6.304;2023-05-14T13:16:40;23.10;63.10
16412;DHT22;8315;52.104;6.304;2023-05-14T13:19:07;23.10;65.00
16412;DHT22;8315;52.104;6.304;2023-05-14T13:21:34;23.00;63.60
16412;DHT22;8315;52.104;6.304;2023-05-14T13:24:02;23.10;65.40
16412;DHT22;8315;52.104;6.304;2023-05-14T13:26:29;23.00;68.20
16412;DHT22;8315;52.104;6.304;2023-05-14T13:28:56;23.20;72.60
16412;DHT22;8315;52.104;6.304;2023-05-14T13:31:23;23.40;76.10
16412;DHT22;8315;52.104;6.304;2023-05-14T13:33:50;23.60;72.80
16412;DHT22;8315;52.104;6.304;2023-05-14T13:36:16;23.60;70.70
16412;DHT22;8315;52.104;6.304;2023-05-14T13:38:44;23.60;70.40
16412;DHT22;8315;52.104;6.304;2023-05-14T13:41:12;23.50;72.00
16412;DHT22;8315;52.104;6.304;2023-05-14T13:43:39;23.50;73.50
16412;DHT22;8315;52.104;6.304;2023-05-14T13:46:06;23.40;72.20
16412;DHT22;8315;52.104;6.304;2023-05-14T13:48:32;23.30;72.60
16412;DHT22;8315;52.104;6.304;2023-05-14T13:51:00;23.30;72.70
16412;DHT22;8315;52.104;6.304;2023-05-14T13:53:27;23.30;75.00
16412;DHT22;8315;52.104;6.304;2023-05-14T13:55:54;23.30;72.70
16412;DHT22;8315;52.104;6.304;2023-05-14T13:58:24;23.30;72.70
16412;DHT22;8315;52.104;6.304;2023-05-14T14:00:51;23.20;72.20
16412;DHT22;8315;52.104;6.304;2023-05-14T14:03:18;23.10;70.00
16412;DHT22;8315;52.104;6.304;2023-05-14T14:05:45;23.10;71.80
16412;DHT22;8315;52.104;6.304;2023-05-14T14:08:12;23.10;72.50
16412;DHT22;8315;52.104;6.304;2023-05-14T14:10:38;23.00;71.40
16412;DHT22;8315;52.104;6.304;2023-05-14T14:13:06;22.90;70.40
16412;DHT22;8315;52.104;6.304;2023-05-14T14:15:35;22.90;71.80
16412;DHT22;8315;52.104;6.304;2023-05-14T14:18:02;22.90;70.90
16412;DHT22;8315;52.104;6.304;2023-05-14T14:20:30;22.90;71.60
16412;DHT22;8315;52.104;6.304;2023-05-14T14:22:57;23.10;71.40
16412;DHT22;8315;52.104;6.304;2023-05-14T14:25:24;23.10;69.50
16412;DHT22;8315;52.104;6.304;2023-05-14T14:27:51;23.10;71.80
16412;DHT22;8315;52.104;6.304;2023-05-14T14:30:18;23.10;67.20
16412;DHT22;8315;52.104;6.304;2023-05-14T14:32:46;23.00;69.20
16412;DHT22;8315;52.104;6.304;2023-05-14T14:35:14;23.10;70.30
16412;DHT22;8315;52.104;6.304;2023-05-14T14:37:42;23.10;69.00
16412;DHT22;8315;52.104;6.304;2023-05-14T14:40:13;23.00;67.90
16412;DHT22;8315;52.104;6.304;2023-05-14T14:42:40;23.10;68.80
16412;DHT22;8315;52.104;6.304;2023-05-14T14:45:08;23.10;68.30
16412;DHT22;8315;52.104;6.304;2023-05-14T14:47:36;23.10;69.10
16412;DHT22;8315;52.104;6.304;2023-05-14T14:50:04;23.00;67.50
16412;DHT22;8315;52.104;6.304;2023-05-14T14:52:32;23.40;68.40
16412;DHT22;8315;52.104;6.304;2023-05-14T14:55:00;23.60;69.70
16412;DHT22;8315;52.104;6.304;2023-05-14T14:57:27;23.70;69.20
16412;DHT22;8315;52.104;6.304;2023-05-14T14:59:53;23.70;68.70
16412;DHT22;8315;52.104;6.304;2023-05-14T15:02:20;23.60;69.50
16412;DHT22;8315;52.104;6.304;2023-05-14T15:04:47;23.70;70.90
16412;DHT22;8315;52.104;6.304;2023-05-14T15:07:15;23.80;67.80
16412;DHT22;8315;52.104;6.304;2023-05-14T15:09:43;23.80;69.60
16412;DHT22;8315;52.104;6.304;2023-05-14T15:12:09;23.80;69.40
16412;DHT22;8315;52.104;6.304;2023-05-14T15:14:36;23.90;69.70
16412;DHT22;8315;52.104;6.304;2023-05-14T15:17:03;23.90;70.70
16412;DHT22;8315;52.104;6.304;2023-05-14T15:19:30;24.10;71.30
16412;DHT22;8315;52.104;6.304;2023-05-14T15:21:57;24.00;65.60
16412;DHT22;8315;52.104;6.304;2023-05-14T15:24:25;23.80;64.50
16412;DHT22;8315;52.104;6.304;2023-05-14T15:26:52;23.90;64.10
16412;DHT22;8315;52.104;6.304;2023-05-14T15:29:19;23.80;63.20
16412;DHT22;8315;52.104;6.304;2023-05-14T15:31:45;23.70;62.50
16412;DHT22;8315;52.104;6.304;2023-05-14T15:34:12;23.70;63.10
16412;DHT22;8315;52.104;6.304;2023-05-14T15:36:39;23.80;65.80
16412;DHT22;8315;52.104;6.304;2023-05-14T15:39:06;23.80;66.20
16412;DHT22;8315;52.104;6.304;2023-05-14T15:41:36;23.80;64.90
16412;DHT22;8315;52.104;6.304;2023-05-14T15:44:03;23.80;64.30
16412;DHT22;8315;52.104;6.304;2023-05-14T15:46:30;23.80;66.20